Flight Track Log - Related Links

Times and Time Zones

All times are in EDT time to prevent confusion due to time zone crossing. See the ASQ5506 flight status page for this flight to view local times or setup timezone preferences in your user account.

Time Position Orientation Groundspeed Altitude Reporting Facility
EDT Latitude Longitude Course Direction KTS MPH feet Rate Location/Type
Tue 07:29:42 PM 32.3269 -86.3028 63° Northeast 191 220 4,900  Level Atlanta Center
Tue 07:30:42 PM 32.3764 -86.2303 51° Northeast 239 275 7,600 2,333 Climbing Atlanta Center
Tue 07:32:42 PM 32.4942 -86.0558 51° Northeast 324 373 11,900 2,000 Climbing Atlanta Center
Tue 07:33:42 PM 32.5606 -85.9539 52° Northeast 368 423 13,600 1,550 Climbing Atlanta Center
Tue 07:34:00 PM 32.5627 -85.9512 55° Northeast  Level FlightAware
Tue 07:34:42 PM 32.6289 -85.8492 52° Northeast 392 451 15,000  Level Atlanta Center
Tue 07:35:42 PM 32.7014 -85.7397 52° Northeast 404 465 14,900 -50 Descending Atlanta Center
Tue 07:36:42 PM 32.7736 -85.6297 52° Northeast 415 478 14,900  Level Atlanta Center
Tue 07:37:42 PM 32.8461 -85.5200 52° Northeast 420 483 14,900  Level Atlanta Center
Tue 07:38:43 PM 32.9142 -85.4172 52° Northeast 415 478 14,900  Level Atlanta Center
Tue 07:39:42 PM 32.9756 -85.3214 53° Northeast 396 456 14,900  Level Atlanta Center
Tue 07:40:42 PM 33.0308 -85.2331 53° Northeast 362 417 14,900 -400 Level Atlanta Center
Tue 07:41:42 PM 33.0878 -85.1619 46° Northeast 328 377 14,100 -1,050 Descending Atlanta Center
Tue 07:42:42 PM 33.1469 -85.0808 49° Northeast 316 364 12,800 -1,050 Descending Atlanta Center
Tue 07:43:42 PM 33.2061 -85.0047 47° Northeast 316 364 12,000 -750 Descending Atlanta Center
Tue 07:44:42 PM 33.2794 -84.9533 30° Northeast 311 358 11,300 -950 Descending Atlanta Center
Tue 07:45:42 PM 33.3611 -84.9217 18° North 299 344 10,100 -1,150 Descending Atlanta Center
Tue 07:46:42 PM 33.4425 -84.9200 North 292 336 9,000 -1,050 Descending Atlanta Center
Tue 07:47:42 PM 33.5219 -84.9208 359° North 292 336 8,000 -1,017 Descending Atlanta Center
Tue 07:48:40 PM 33.6000 -84.8667 30° Northeast 287 330 7,000 -508 Descending Atlanta TRACON
Tue 07:49:40 PM 33.6333 -84.8167 51° Northeast 251 289 7,000 -250 Level Atlanta TRACON
Tue 07:50:40 PM 33.6333 -84.7333 90° East 246 283 6,500 -950 Descending Atlanta TRACON
Tue 07:51:40 PM 33.6333 -84.6667 90° East 223 257 5,100 -1,400 Descending Atlanta TRACON
Tue 07:52:40 PM 33.6333 -84.6000 90° East 179 206 3,700 -1,250 Descending Atlanta TRACON
Tue 07:53:40 PM 33.6333 -84.5333 90° East 166 191 2,600 -905 Descending Atlanta TRACON
Tue 07:54:46 PM 33.6333 -84.5000 90° East 126 145 1,800 -727 Descending Atlanta TRACON
Tue 07:56:00 PM 33.6367 -84.4279 87° East  Level Estimated
Tue 08:03:00 PM 33.6367 -84.4279 261° West  Level Estimated
Tue 08:04:00 PM 33.6367 -84.4279 261° West  Level Estimated

Login

Don't have an account? Register now (free) for customized features, flight alerts, and more!